Time;durP1;ratioP1;P1;durP2;ratioP2;P2;SDS_P1;SDS_P2;PMS_P1;PMS_P2;Temp;Humidity;BMP_temperature;BMP_pressure;BME280_temperature;BME280_humidity;BME280_pressure;Samples;Min_cycle;Max_cycle;Signal;HPM_P1;HPM_P2
2021/11/06 00:00:51;;;;;;;5.53;2.60;;;;;;;;;;5034542;28;20206;-57
2021/11/06 00:03:20;;;;;;;5.13;2.78;;;;;;;;;;5033598;28;20218;-57
2021/11/06 00:05:47;;;;;;;5.70;2.10;;;;;;;;;;5032974;28;20198;-57
2021/11/06 00:08:14;;;;;;;3.50;2.53;;;;;;;;;;5033070;28;20202;-57
2021/11/06 00:10:42;;;;;;;5.80;2.80;;;;;;;;;;5033023;28;20206;-57
2021/11/06 00:13:09;;;;;;;3.53;2.20;;;;;;;;;;5032764;28;20229;-57
2021/11/06 00:15:36;;;;;;;6.18;2.95;;;;;;;;;;5032892;28;20202;-57
2021/11/06 00:18:04;;;;;;;3.25;2.22;;;;;;;;;;5033022;28;20198;-57
2021/11/06 00:20:33;;;;;;;4.63;2.95;;;;;;;;;;5033144;28;20324;-57
2021/11/06 00:23:00;;;;;;;6.10;2.90;;;;;;;;;;5032632;28;20252;-57
2021/11/06 00:25:28;;;;;;;5.40;3.05;;;;;;;;;;5036640;28;20708;-57
2021/11/06 00:27:56;;;;;;;5.68;2.58;;;;;;;;;;5037268;28;20580;-57
2021/11/06 00:30:23;;;;;;;5.03;3.72;;;;;;;;;;5037490;28;20205;-57
2021/11/06 00:32:50;;;;;;;5.97;2.97;;;;;;;;;;5037169;28;20237;-57
2021/11/06 00:35:18;;;;;;;6.05;4.25;;;;;;;;;;5037336;28;20209;-57
2021/11/06 00:37:47;;;;;;;8.38;4.53;;;;;;;;;;5037130;28;20225;-57
2021/11/06 00:40:15;;;;;;;8.40;4.55;;;;;;;;;;5036989;28;20623;-57
2021/11/06 00:42:42;;;;;;;9.18;5.18;;;;;;;;;;5036730;28;20771;-57
2021/11/06 00:45:10;;;;;;;7.00;4.50;;;;;;;;;;5036754;28;20202;-57
2021/11/06 00:47:37;;;;;;;7.38;4.40;;;;;;;;;;5037100;28;20202;-57
2021/11/06 00:50:05;;;;;;;7.22;5.00;;;;;;;;;;5036680;28;20202;-57
2021/11/06 00:52:32;;;;;;;8.65;5.13;;;;;;;;;;5036745;28;20233;-57
2021/11/06 00:55:01;;;;;;;8.60;5.72;;;;;;;;;;5036434;28;20222;-57
2021/11/06 00:57:29;;;;;;;7.78;5.55;;;;;;;;;;5036939;28;20252;-57
2021/11/06 00:59:57;;;;;;;8.40;6.15;;;;;;;;;;5036861;28;20256;-57
2021/11/06 01:02:24;;;;;;;6.15;4.80;;;;;;;;;;5036600;28;20714;-57
2021/11/06 01:04:51;;;;;;;11.27;5.93;;;;;;;;;;5036679;28;20202;-57
2021/11/06 01:07:19;;;;;;;7.47;6.10;;;;;;;;;;5037050;28;20198;-57
2021/11/06 01:09:46;;;;;;;8.20;5.82;;;;;;;;;;5037103;28;20206;-57
2021/11/06 01:12:15;;;;;;;7.20;5.75;;;;;;;;;;5036659;28;20221;-57
2021/11/06 01:14:42;;;;;;;9.05;5.50;;;;;;;;;;5036497;28;20229;-57
2021/11/06 01:17:09;;;;;;;7.72;5.40;;;;;;;;;;5036185;28;20198;-57
2021/11/06 01:19:37;;;;;;;7.50;5.50;;;;;;;;;;5036501;28;20293;-57
2021/11/06 01:22:04;;;;;;;9.93;5.43;;;;;;;;;;5036255;28;20210;-57
2021/11/06 01:24:31;;;;;;;11.20;6.38;;;;;;;;;;5036337;28;20210;-57
2021/11/06 01:26:59;;;;;;;10.38;6.43;;;;;;;;;;5036320;28;20229;-57
2021/11/06 01:29:27;;;;;;;8.57;5.57;;;;;;;;;;5036224;28;20213;-57
2021/11/06 01:31:55;;;;;;;7.97;6.22;;;;;;;;;;5036256;28;20213;-57
2021/11/06 01:34:22;;;;;;;6.40;5.72;;;;;;;;;;5035756;28;20226;-57
2021/11/06 01:36:49;;;;;;;11.60;6.00;;;;;;;;;;5034999;28;20673;-57
2021/11/06 01:39:17;;;;;;;7.07;6.05;;;;;;;;;;5035942;28;20619;-57
2021/11/06 01:41:44;;;;;;;9.75;6.00;;;;;;;;;;5035592;28;20198;-57
2021/11/06 01:44:11;;;;;;;10.73;6.22;;;;;;;;;;5035523;28;20284;-58
2021/11/06 01:46:40;;;;;;;9.73;7.55;;;;;;;;;;5035831;28;20217;-57
2021/11/06 01:49:07;;;;;;;9.95;6.72;;;;;;;;;;5035542;28;20198;-57
2021/11/06 01:51:35;;;;;;;9.68;7.03;;;;;;;;;;5035446;28;20697;-57
2021/11/06 01:54:02;;;;;;;8.25;6.65;;;;;;;;;;5035503;28;20593;-57
2021/11/06 01:56:30;;;;;;;7.70;6.60;;;;;;;;;;5035657;28;20206;-57
2021/11/06 01:58:57;;;;;;;10.70;6.35;;;;;;;;;;5035293;28;20202;-57
2021/11/06 02:01:24;;;;;;;9.65;5.93;;;;;;;;;;5035404;28;20202;-57
2021/11/06 02:03:53;;;;;;;12.07;7.00;;;;;;;;;;5035363;28;20218;-57
2021/11/06 02:06:20;;;;;;;7.43;6.28;;;;;;;;;;5035402;28;20202;-57
2021/11/06 02:08:48;;;;;;;11.50;6.43;;;;;;;;;;5035474;28;20237;-57
2021/11/06 02:11:15;;;;;;;11.07;7.10;;;;;;;;;;5035417;28;20301;-57
2021/11/06 02:13:42;;;;;;;10.18;6.55;;;;;;;;;;5034940;28;20219;-58
2021/11/06 02:16:10;;;;;;;11.82;6.43;;;;;;;;;;5035539;28;20613;-58
2021/11/06 02:18:37;;;;;;;9.48;6.72;;;;;;;;;;5035515;28;20209;-58
2021/11/06 02:21:07;;;;;;;10.85;7.32;;;;;;;;;;5035560;28;20277;-58
2021/11/06 02:23:35;;;;;;;9.35;7.03;;;;;;;;;;5034904;28;20241;-58
2021/11/06 02:26:02;;;;;;;11.75;7.72;;;;;;;;;;5035050;28;20217;-58
2021/11/06 02:28:29;;;;;;;10.38;6.95;;;;;;;;;;5034986;28;20198;-57
2021/11/06 02:30:57;;;;;;;11.38;6.88;;;;;;;;;;5035406;28;20615;-57
2021/11/06 02:33:24;;;;;;;9.75;6.50;;;;;;;;;;5034761;28;20249;-58
2021/11/06 02:35:51;;;;;;;11.75;7.30;;;;;;;;;;5034919;28;20280;-58
2021/11/06 02:38:20;;;;;;;11.77;8.13;;;;;;;;;;5034933;28;20666;-57
2021/11/06 02:40:47;;;;;;;10.18;7.80;;;;;;;;;;5034889;28;20202;-57
2021/11/06 02:43:15;;;;;;;9.35;8.45;;;;;;;;;;5034651;28;20744;-58
2021/11/06 02:45:42;;;;;;;11.18;8.10;;;;;;;;;;5035025;28;20547;-58
2021/11/06 02:48:09;;;;;;;12.80;9.40;;;;;;;;;;5033797;28;20203;-58
2021/11/06 02:50:37;;;;;;;10.88;9.05;;;;;;;;;;5034790;28;20328;-58
2021/11/06 02:53:04;;;;;;;10.02;8.90;;;;;;;;;;5034294;28;20218;-58
2021/11/06 02:55:33;;;;;;;14.15;9.93;;;;;;;;;;5034513;28;20226;-57
2021/11/06 02:58:00;;;;;;;12.88;9.50;;;;;;;;;;5034530;28;20213;-57
2021/11/06 03:00:29;;;;;;;12.25;10.43;;;;;;;;;;5034462;28;20213;-57
2021/11/06 03:02:57;;;;;;;14.02;10.80;;;;;;;;;;5034079;28;20267;-57
2021/11/06 03:05:24;;;;;;;12.98;10.40;;;;;;;;;;5034406;28;20205;-57
2021/11/06 03:07:52;;;;;;;11.30;10.13;;;;;;;;;;5034011;28;20202;-57
2021/11/06 03:10:19;;;;;;;11.80;9.93;;;;;;;;;;5034854;28;20206;-57
2021/11/06 03:12:49;;;;;;;11.23;10.23;;;;;;;;;;5034098;28;20230;-57
2021/11/06 03:15:17;;;;;;;14.73;11.68;;;;;;;;;;5034135;28;20226;-57
2021/11/06 03:17:44;;;;;;;11.50;10.38;;;;;;;;;;5034052;28;20197;-58
2021/11/06 03:20:12;;;;;;;11.80;9.98;;;;;;;;;;5034095;28;20557;-57
2021/11/06 03:22:40;;;;;;;11.55;10.20;;;;;;;;;;5033810;28;20313;-57
2021/11/06 03:25:07;;;;;;;13.88;10.52;;;;;;;;;;5033747;28;20206;-57
2021/11/06 03:27:35;;;;;;;13.43;10.32;;;;;;;;;;5033967;28;20603;-57
2021/11/06 03:30:05;;;;;;;11.75;10.00;;;;;;;;;;5033655;28;20599;-57
2021/11/06 03:32:33;;;;;;;10.95;9.75;;;;;;;;;;5033494;28;20733;-57
2021/11/06 03:35:00;;;;;;;11.40;10.23;;;;;;;;;;5033654;28;20233;-58
2021/11/06 03:37:27;;;;;;;13.63;10.50;;;;;;;;;;5033486;28;20206;-58
2021/11/06 03:39:55;;;;;;;12.27;9.38;;;;;;;;;;5033382;28;20604;-58
2021/11/06 03:42:22;;;;;;;12.15;10.43;;;;;;;;;;5033661;28;20230;-58
2021/11/06 03:44:49;;;;;;;12.57;9.70;;;;;;;;;;5033577;28;20194;-58
2021/11/06 03:47:18;;;;;;;14.10;10.43;;;;;;;;;;5033782;28;20288;-57
2021/11/06 03:49:45;;;;;;;10.05;8.95;;;;;;;;;;5033409;28;20206;-58
2021/11/06 03:52:13;;;;;;;14.13;10.65;;;;;;;;;;5033506;28;20572;-58
2021/11/06 03:54:41;;;;;;;12.93;10.45;;;;;;;;;;5033109;28;20218;-58
2021/11/06 03:57:09;;;;;;;13.02;9.57;;;;;;;;;;5033519;28;20202;-58
2021/11/06 03:59:36;;;;;;;11.25;9.45;;;;;;;;;;5032788;28;20244;-58
2021/11/06 04:02:03;;;;;;;13.20;9.25;;;;;;;;;;5033321;28;20202;-58
2021/11/06 04:04:32;;;;;;;14.95;9.93;;;;;;;;;;5033098;28;20204;-58
2021/11/06 04:08:51;;;;;;;12.45;9.15;;;;;;;;;;5092361;27;20606;-57
2021/11/06 04:11:19;;;;;;;11.77;10.50;;;;;;;;;;5091590;28;20204;-57
2021/11/06 04:13:46;;;;;;;10.23;9.20;;;;;;;;;;5090573;28;20220;-57
2021/11/06 04:16:14;;;;;;;10.27;9.15;;;;;;;;;;5091118;28;20208;-57
2021/11/06 04:18:41;;;;;;;10.02;8.45;;;;;;;;;;5091063;28;20204;-58
2021/11/06 04:21:08;;;;;;;12.70;10.77;;;;;;;;;;5087766;22;20697;-63
2021/11/06 04:23:36;;;;;;;10.23;9.10;;;;;;;;;;5050477;28;20209;-63
2021/11/06 04:26:05;;;;;;;12.00;9.25;;;;;;;;;;5050334;28;20201;-62
2021/11/06 04:28:32;;;;;;;10.73;8.48;;;;;;;;;;5050225;28;20233;-63
2021/11/06 04:30:59;;;;;;;10.20;9.10;;;;;;;;;;5049896;28;20313;-61
2021/11/06 04:33:26;;;;;;;12.50;9.55;;;;;;;;;;5049964;28;20197;-62
2021/11/06 04:35:54;;;;;;;10.88;9.75;;;;;;;;;;5049920;28;20208;-62
2021/11/06 04:38:22;;;;;;;9.63;8.63;;;;;;;;;;5049884;28;20202;-62
2021/11/06 04:40:49;;;;;;;9.75;8.80;;;;;;;;;;5050060;28;20217;-62
2021/11/06 04:43:18;;;;;;;11.52;8.07;;;;;;;;;;5050223;28;20228;-62
2021/11/06 04:45:45;;;;;;;10.13;8.80;;;;;;;;;;5050160;28;20236;-62
2021/11/06 04:48:13;;;;;;;10.45;8.65;;;;;;;;;;5049693;28;20222;-62
2021/11/06 04:50:40;;;;;;;14.50;8.43;;;;;;;;;;5049654;28;20234;-62
2021/11/06 04:53:07;;;;;;;12.50;8.85;;;;;;;;;;5049968;28;20201;-63
2021/11/06 04:55:34;;;;;;;13.38;8.73;;;;;;;;;;5049805;28;20250;-63
2021/11/06 04:58:02;;;;;;;8.88;8.00;;;;;;;;;;5049489;28;20194;-62
2021/11/06 05:00:31;;;;;;;10.23;7.55;;;;;;;;;;5049445;28;20293;-62
2021/11/06 05:02:58;;;;;;;9.38;8.38;;;;;;;;;;5049471;28;20202;-62
2021/11/06 05:05:26;;;;;;;9.90;7.55;;;;;;;;;;5049932;28;20205;-62
2021/11/06 05:07:53;;;;;;;8.98;7.80;;;;;;;;;;5050069;28;20283;-62
2021/11/06 05:10:20;;;;;;;9.05;7.80;;;;;;;;;;5050160;28;20229;-62
2021/11/06 05:12:49;;;;;;;10.25;8.15;;;;;;;;;;5050084;28;20201;-62
2021/11/06 05:15:17;;;;;;;11.98;8.70;;;;;;;;;;5050980;28;20575;-62
2021/11/06 05:17:46;;;;;;;9.90;8.10;;;;;;;;;;5050690;28;20233;-63
2021/11/06 05:20:13;;;;;;;10.52;7.90;;;;;;;;;;5035891;28;20241;-61
2021/11/06 05:22:41;;;;;;;10.35;9.00;;;;;;;;;;5036054;28;20206;-62
2021/11/06 05:25:10;;;;;;;9.98;8.13;;;;;;;;;;5037218;28;20674;-62
2021/11/06 05:27:38;;;;;;;9.18;8.20;;;;;;;;;;5037613;28;20587;-62
2021/11/06 05:30:06;;;;;;;12.93;8.82;;;;;;;;;;5037411;28;20222;-62
2021/11/06 05:32:33;;;;;;;10.50;7.00;;;;;;;;;;5037561;28;20563;-62
2021/11/06 05:35:02;;;;;;;11.35;8.20;;;;;;;;;;5037381;28;20666;-62
2021/11/06 05:37:30;;;;;;;11.07;8.65;;;;;;;;;;5038343;28;20202;-62
2021/11/06 05:39:57;;;;;;;8.60;7.78;;;;;;;;;;5041193;28;20316;-62
2021/11/06 05:42:25;;;;;;;8.23;7.43;;;;;;;;;;5041131;28;20215;-62
2021/11/06 05:44:52;;;;;;;11.55;8.80;;;;;;;;;;5043378;28;20229;-62
2021/11/06 05:47:19;;;;;;;9.73;7.90;;;;;;;;;;5040036;28;20229;-62
2021/11/06 05:49:48;;;;;;;12.45;9.23;;;;;;;;;;5039199;28;20677;-62
2021/11/06 05:52:16;;;;;;;10.05;9.02;;;;;;;;;;5039315;28;20564;-62
2021/11/06 05:54:44;;;;;;;18.27;11.38;;;;;;;;;;5040502;28;20202;-69
2021/11/06 05:57:11;;;;;;;14.40;9.60;;;;;;;;;;5041665;28;20225;-61
2021/11/06 05:59:38;;;;;;;13.57;9.57;;;;;;;;;;5041881;28;20202;-70
2021/11/06 06:02:06;;;;;;;13.95;10.95;;;;;;;;;;5043158;28;20209;-73
2021/11/06 06:04:33;;;;;;;12.80;10.73;;;;;;;;;;5035963;28;20228;-62
2021/11/06 06:07:02;;;;;;;11.13;9.77;;;;;;;;;;5035515;28;20210;-62
2021/11/06 06:09:31;;;;;;;14.25;11.27;;;;;;;;;;5035285;28;20198;-62
2021/11/06 06:11:58;;;;;;;12.60;10.88;;;;;;;;;;5035258;28;20213;-62
2021/11/06 06:14:25;;;;;;;12.45;10.02;;;;;;;;;;5035058;28;20198;-62
2021/11/06 06:16:53;;;;;;;13.15;10.43;;;;;;;;;;5034756;28;20202;-62
2021/11/06 06:19:20;;;;;;;16.08;11.25;;;;;;;;;;5034748;28;20248;-62
2021/11/06 06:21:47;;;;;;;12.82;11.60;;;;;;;;;;5034610;28;20605;-62
2021/11/06 06:24:14;;;;;;;14.95;12.13;;;;;;;;;;5035009;28;20202;-62
2021/11/06 06:26:43;;;;;;;12.43;11.00;;;;;;;;;;5034707;28;20582;-62
2021/11/06 06:29:10;;;;;;;15.10;11.35;;;;;;;;;;5034494;28;20225;-62
2021/11/06 06:31:38;;;;;;;14.50;11.35;;;;;;;;;;5033480;28;20233;-62
2021/11/06 06:34:05;;;;;;;16.65;11.57;;;;;;;;;;5034776;28;20205;-62
2021/11/06 06:36:32;;;;;;;21.85;11.15;;;;;;;;;;5034816;28;20206;-63
2021/11/06 06:39:00;;;;;;;14.27;12.30;;;;;;;;;;5035100;28;20207;-62
2021/11/06 06:41:27;;;;;;;14.30;12.40;;;;;;;;;;5034340;28;20223;-62
2021/11/06 06:43:56;;;;;;;14.93;12.48;;;;;;;;;;5034507;28;20285;-62
2021/11/06 06:46:24;;;;;;;16.08;12.43;;;;;;;;;;5034350;28;20264;-62
2021/11/06 06:48:51;;;;;;;14.27;12.15;;;;;;;;;;5034025;28;20218;-62
2021/11/06 06:51:19;;;;;;;16.13;12.68;;;;;;;;;;5034072;28;20725;-62
2021/11/06 06:53:46;;;;;;;16.48;12.50;;;;;;;;;;5034429;28;20206;-62
2021/11/06 06:56:13;;;;;;;17.75;13.75;;;;;;;;;;5034336;28;20198;-62
2021/11/06 06:58:41;;;;;;;14.77;12.43;;;;;;;;;;5034052;28;20198;-62
2021/11/06 07:01:09;;;;;;;16.40;12.90;;;;;;;;;;5033862;28;20222;-62
2021/11/06 07:03:37;;;;;;;15.18;13.32;;;;;;;;;;5033795;28;20596;-62
2021/11/06 07:06:06;;;;;;;18.77;15.10;;;;;;;;;;5034371;28;20225;-62
2021/11/06 07:08:33;;;;;;;21.42;13.40;;;;;;;;;;5034396;28;20214;-62
2021/11/06 07:11:00;;;;;;;19.58;14.35;;;;;;;;;;5034182;28;20367;-62
2021/11/06 07:13:28;;;;;;;16.45;14.35;;;;;;;;;;5033909;28;20202;-62
2021/11/06 07:15:55;;;;;;;15.13;13.30;;;;;;;;;;5034123;28;20206;-62
2021/11/06 07:18:24;;;;;;;17.73;12.43;;;;;;;;;;5034234;28;20195;-62
2021/11/06 07:20:51;;;;;;;19.45;14.05;;;;;;;;;;5033789;28;20607;-62
2021/11/06 07:23:19;;;;;;;18.63;13.10;;;;;;;;;;5033824;28;20202;-62
2021/11/06 07:25:46;;;;;;;17.20;13.13;;;;;;;;;;5033550;28;20214;-62
2021/11/06 07:28:13;;;;;;;16.08;13.40;;;;;;;;;;5033721;28;20241;-62
2021/11/06 07:30:41;;;;;;;16.85;12.70;;;;;;;;;;5033502;28;20218;-62
2021/11/06 07:33:08;;;;;;;17.10;12.02;;;;;;;;;;5033456;28;20198;-62
2021/11/06 07:35:37;;;;;;;16.48;11.77;;;;;;;;;;5033269;28;20666;-62
2021/11/06 07:38:04;;;;;;;16.83;11.15;;;;;;;;;;5033205;28;20248;-62
2021/11/06 07:40:31;;;;;;;18.83;11.70;;;;;;;;;;5033669;28;20222;-61
2021/11/06 07:42:59;;;;;;;13.60;10.77;;;;;;;;;;5032950;28;20210;-62
2021/11/06 07:45:26;;;;;;;15.73;11.50;;;;;;;;;;5033127;28;20259;-62
2021/11/06 07:47:53;;;;;;;15.15;11.68;;;;;;;;;;5033159;28;20214;-63
2021/11/06 07:50:20;;;;;;;13.70;9.85;;;;;;;;;;5033079;28;20690;-63
2021/11/06 07:52:49;;;;;;;19.58;11.38;;;;;;;;;;5033171;28;20202;-61
2021/11/06 07:55:16;;;;;;;14.90;10.57;;;;;;;;;;5033428;28;20213;-62
2021/11/06 07:57:44;;;;;;;14.02;10.52;;;;;;;;;;5033332;28;20205;-63
2021/11/06 08:00:13;;;;;;;11.88;8.93;;;;;;;;;;5033683;28;20732;-62
2021/11/06 08:02:41;;;;;;;13.82;10.45;;;;;;;;;;5033321;28;20289;-62
2021/11/06 08:05:09;;;;;;;13.40;9.90;;;;;;;;;;5033424;28;20202;-62
2021/11/06 08:07:36;;;;;;;16.20;11.27;;;;;;;;;;5033814;28;20378;-62
2021/11/06 08:10:05;;;;;;;12.43;10.23;;;;;;;;;;5033208;28;20731;-62
2021/11/06 08:12:33;;;;;;;12.55;9.48;;;;;;;;;;5033134;28;20198;-62
2021/11/06 08:15:01;;;;;;;15.25;8.95;;;;;;;;;;5033246;28;20569;-65
2021/11/06 08:17:28;;;;;;;11.27;8.65;;;;;;;;;;5033499;28;20209;-63
2021/11/06 08:19:55;;;;;;;12.30;9.25;;;;;;;;;;5032729;28;20242;-63
2021/11/06 08:22:23;;;;;;;12.25;8.68;;;;;;;;;;5033370;28;20186;-63
2021/11/06 08:24:50;;;;;;;10.93;7.78;;;;;;;;;;5032786;28;20210;-63
2021/11/06 08:27:19;;;;;;;11.65;8.00;;;;;;;;;;5032901;28;20233;-62
2021/11/06 08:29:46;;;;;;;12.18;8.52;;;;;;;;;;5032946;28;20660;-63
2021/11/06 08:32:13;;;;;;;10.68;7.78;;;;;;;;;;5033127;28;20207;-62
2021/11/06 08:34:41;;;;;;;11.25;8.32;;;;;;;;;;5032531;28;20563;-61
2021/11/06 08:37:08;;;;;;;13.30;8.30;;;;;;;;;;5032702;28;20206;-62
2021/11/06 08:39:36;;;;;;;10.25;7.50;;;;;;;;;;5032618;28;20256;-63
2021/11/06 08:42:03;;;;;;;12.57;7.50;;;;;;;;;;5032903;28;20610;-62
2021/11/06 08:44:32;;;;;;;10.95;8.20;;;;;;;;;;5032627;28;20205;-62
2021/11/06 08:46:59;;;;;;;8.38;7.05;;;;;;;;;;5032484;28;20670;-62
2021/11/06 08:49:27;;;;;;;8.48;6.78;;;;;;;;;;5032832;28;20226;-62
2021/11/06 08:51:55;;;;;;;12.33;7.67;;;;;;;;;;5032600;28;20222;-62
2021/11/06 08:54:23;;;;;;;9.35;7.32;;;;;;;;;;5034836;28;20575;-61
2021/11/06 08:56:50;;;;;;;9.30;6.75;;;;;;;;;;5036641;28;20209;-62
2021/11/06 08:59:18;;;;;;;8.88;6.60;;;;;;;;;;5036090;28;20194;-61
2021/11/06 09:01:47;;;;;;;10.03;6.93;;;;;;;;;;5036376;28;20248;-62
2021/11/06 09:04:15;;;;;;;7.20;6.47;;;;;;;;;;5036272;28;20515;-63
2021/11/06 09:06:42;;;;;;;9.95;6.93;;;;;;;;;;5036794;28;20229;-62
2021/11/06 09:09:11;;;;;;;12.95;6.68;;;;;;;;;;5036363;28;20653;-61
2021/11/06 09:11:39;;;;;;;10.63;6.60;;;;;;;;;;5036899;28;20230;-63
2021/11/06 09:14:07;;;;;;;12.47;7.20;;;;;;;;;;5036489;28;20202;-63
2021/11/06 09:16:35;;;;;;;9.50;6.35;;;;;;;;;;5036253;28;20452;-61
2021/11/06 09:19:04;;;;;;;8.93;6.10;;;;;;;;;;5036609;28;20202;-63
2021/11/06 09:21:31;;;;;;;8.88;7.03;;;;;;;;;;5035954;28;20234;-63
2021/11/06 09:24:02;;;;;;;8.93;5.60;;;;;;;;;;5036150;28;20202;-62
2021/11/06 09:26:30;;;;;;;10.70;6.10;;;;;;;;;;5035796;28;20183;-61
2021/11/06 09:28:57;;;;;;;8.00;5.70;;;;;;;;;;5036007;28;20233;-63
2021/11/06 09:31:24;;;;;;;8.40;5.47;;;;;;;;;;5035990;28;20225;-63
2021/11/06 09:33:51;;;;;;;8.53;6.20;;;;;;;;;;5035534;28;20210;-63
2021/11/06 09:36:20;;;;;;;6.95;5.82;;;;;;;;;;5035604;28;20855;-61
2021/11/06 09:38:48;;;;;;;11.60;6.40;;;;;;;;;;5035351;28;20195;-63
2021/11/06 09:41:17;;;;;;;12.73;6.78;;;;;;;;;;5035378;28;20249;-62
2021/11/06 09:43:45;;;;;;;7.75;5.75;;;;;;;;;;5035400;28;20221;-61
2021/11/06 09:46:12;;;;;;;9.65;6.68;;;;;;;;;;5035636;28;20206;-63
2021/11/06 09:48:42;;;;;;;14.50;9.20;;;;;;;;;;5035596;28;20214;-62
2021/11/06 09:51:10;;;;;;;7.80;6.65;;;;;;;;;;5035183;28;20465;-62
2021/11/06 09:53:40;;;;;;;12.27;6.65;;;;;;;;;;5035266;28;20210;-62
2021/11/06 09:56:08;;;;;;;9.57;7.00;;;;;;;;;;5035126;28;20213;-62
2021/11/06 09:58:35;;;;;;;9.85;6.88;;;;;;;;;;5035403;28;20197;-63
2021/11/06 10:01:02;;;;;;;9.45;6.57;;;;;;;;;;5034908;28;20226;-62
2021/11/06 10:03:30;;;;;;;8.77;5.90;;;;;;;;;;5035367;28;20206;-62
2021/11/06 10:05:59;;;;;;;9.82;5.15;;;;;;;;;;5034699;28;20678;-63
2021/11/06 10:08:28;;;;;;;8.18;6.00;;;;;;;;;;5034953;28;20206;-62
2021/11/06 10:10:57;;;;;;;8.65;6.45;;;;;;;;;;5035172;28;20226;-63
2021/11/06 10:13:25;;;;;;;7.88;6.55;;;;;;;;;;5035382;28;20206;-62
2021/11/06 10:15:53;;;;;;;7.53;5.88;;;;;;;;;;5035262;28;20198;-63
2021/11/06 10:18:21;;;;;;;6.97;6.03;;;;;;;;;;5035348;28;20209;-62
2021/11/06 10:20:50;;;;;;;14.27;6.20;;;;;;;;;;5069260;22;20226;-58
2021/11/06 10:23:19;;;;;;;7.95;5.75;;;;;;;;;;5034594;28;20202;-58
2021/11/06 10:25:46;;;;;;;9.65;5.38;;;;;;;;;;5034317;28;20217;-58
2021/11/06 10:28:14;;;;;;;9.98;5.60;;;;;;;;;;5034371;28;20727;-57
2021/11/06 10:30:43;;;;;;;10.38;6.57;;;;;;;;;;5034283;28;20222;-58
2021/11/06 10:33:12;;;;;;;9.80;6.68;;;;;;;;;;5034254;28;20225;-58
2021/11/06 10:35:40;;;;;;;7.68;5.40;;;;;;;;;;5034144;28;20203;-58
2021/11/06 10:38:10;;;;;;;9.00;6.05;;;;;;;;;;5034502;28;20206;-57
2021/11/06 10:40:40;;;;;;;7.40;5.75;;;;;;;;;;5034128;28;20227;-57
2021/11/06 10:43:08;;;;;;;7.18;5.82;;;;;;;;;;5034152;28;20301;-58
2021/11/06 10:45:38;;;;;;;12.13;5.68;;;;;;;;;;5034476;28;20214;-59
2021/11/06 10:48:06;;;;;;;8.40;5.90;;;;;;;;;;5034469;28;20213;-57
2021/11/06 10:50:45;;;;;;;8.40;5.05;;;;;;;;;;5033600;28;20233;-56
2021/11/06 10:53:14;;;;;;;7.20;6.07;;;;;;;;;;5034092;28;20201;-57
2021/11/06 10:55:42;;;;;;;10.50;5.50;;;;;;;;;;5034173;28;20697;-57
2021/11/06 10:58:20;;;;;;;8.43;6.55;;;;;;;;;;5034588;28;20642;-57
2021/11/06 11:00:51;;;;;;;10.38;6.60;;;;;;;;;;5035022;28;20225;-56
2021/11/06 11:03:25;;;;;;;6.57;5.90;;;;;;;;;;5034609;28;20194;-56
2021/11/06 11:05:53;;;;;;;9.60;5.53;;;;;;;;;;5034287;28;20212;-57
2021/11/06 11:08:20;;;;;;;7.28;6.20;;;;;;;;;;5034152;28;20205;-56
2021/11/06 11:10:48;;;;;;;7.82;5.78;;;;;;;;;;5033445;28;20736;-58
2021/11/06 11:13:16;;;;;;;8.70;5.72;;;;;;;;;;5034099;28;20202;-57
2021/11/06 11:15:45;;;;;;;8.05;6.05;;;;;;;;;;5033784;28;20306;-57
2021/11/06 11:18:27;;;;;;;5.78;5.18;;;;;;;;;;5033147;28;20198;-57
2021/11/06 11:20:55;;;;;;;7.43;5.63;;;;;;;;;;5033081;28;20230;-58
2021/11/06 11:23:24;;;;;;;6.55;5.80;;;;;;;;;;5033750;28;20202;-58
2021/11/06 11:25:51;;;;;;;7.38;5.90;;;;;;;;;;5033479;28;20210;-57
2021/11/06 11:28:19;;;;;;;7.88;5.40;;;;;;;;;;5033628;28;20209;-58
2021/11/06 11:30:46;;;;;;;6.03;5.43;;;;;;;;;;5032751;28;20222;-57
2021/11/06 11:33:14;;;;;;;8.52;5.53;;;;;;;;;;5033272;28;20203;-58
2021/11/06 11:35:43;;;;;;;6.03;5.43;;;;;;;;;;5033355;28;20198;-58
2021/11/06 11:38:12;;;;;;;6.63;5.90;;;;;;;;;;5033332;28;20257;-59
2021/11/06 11:40:44;;;;;;;9.00;6.57;;;;;;;;;;5033120;28;20222;-59
2021/11/06 11:43:17;;;;;;;8.05;6.40;;;;;;;;;;5033453;28;20436;-59
2021/11/06 11:45:49;;;;;;;7.32;5.32;;;;;;;;;;5033335;28;20542;-60
2021/11/06 11:48:20;;;;;;;6.53;5.60;;;;;;;;;;5032950;28;20214;-60
2021/11/06 11:50:49;;;;;;;8.50;6.10;;;;;;;;;;5033050;28;20496;-59
2021/11/06 11:53:26;;;;;;;7.63;6.17;;;;;;;;;;5033307;28;20210;-59
2021/11/06 11:55:55;;;;;;;7.90;5.50;;;;;;;;;;5032802;28;20528;-58
2021/11/06 11:58:25;;;;;;;6.78;5.40;;;;;;;;;;5032865;28;20663;-59
2021/11/06 12:00:53;;;;;;;7.97;5.70;;;;;;;;;;5032695;28;20698;-58
2021/11/06 12:03:32;;;;;;;5.78;4.53;;;;;;;;;;5033006;28;20631;-60
2021/11/06 12:05:59;;;;;;;5.32;4.82;;;;;;;;;;5033136;28;20646;-59
2021/11/06 12:08:29;;;;;;;9.73;4.80;;;;;;;;;;5032828;28;20206;-59
2021/11/06 12:10:59;;;;;;;5.55;5.05;;;;;;;;;;5032751;28;20237;-59
2021/11/06 12:13:36;;;;;;;6.35;5.05;;;;;;;;;;5032926;28;20256;-59
2021/11/06 12:16:04;;;;;;;8.20;5.57;;;;;;;;;;5032339;28;20209;-59
2021/11/06 12:18:54;;;;;;;7.30;4.83;;;;;;;;;;5032838;28;20448;-58
2021/11/06 12:21:33;;;;;;;5.10;4.60;;;;;;;;;;5032597;28;20495;-59
2021/11/06 12:24:20;;;;;;;5.90;4.90;;;;;;;;;;5032505;28;20615;-58
2021/11/06 12:26:48;;;;;;;5.95;5.10;;;;;;;;;;5032217;28;20436;-58
2021/11/06 12:29:23;;;;;;;6.15;4.60;;;;;;;;;;5034064;28;20205;-58
2021/11/06 12:31:51;;;;;;;7.07;4.60;;;;;;;;;;5036665;28;20275;-56
2021/11/06 12:34:33;;;;;;;7.17;4.90;;;;;;;;;;5036397;28;20953;-58
2021/11/06 12:37:00;;;;;;;6.47;5.07;;;;;;;;;;5036218;28;20510;-57
2021/11/06 12:39:42;;;;;;;6.10;4.57;;;;;;;;;;5036548;28;20445;-58
2021/11/06 12:42:13;;;;;;;5.27;4.53;;;;;;;;;;5036559;28;20468;-57
2021/11/06 12:44:51;;;;;;;6.43;5.17;;;;;;;;;;5036274;28;20433;-58
2021/11/06 12:47:19;;;;;;;10.37;5.30;;;;;;;;;;5036497;28;20881;-57
2021/11/06 12:49:47;;;;;;;6.27;4.70;;;;;;;;;;5036310;28;20487;-58
2021/11/06 12:52:15;;;;;;;8.53;6.43;;;;;;;;;;5036528;28;20879;-57
2021/11/06 12:54:43;;;;;;;6.20;4.80;;;;;;;;;;5036130;28;20968;-58
2021/11/06 12:57:10;;;;;;;6.50;4.40;;;;;;;;;;5036422;28;20449;-57
2021/11/06 12:59:46;;;;;;;6.93;4.30;;;;;;;;;;5036067;28;20444;-58
2021/11/06 13:02:14;;;;;;;5.57;4.83;;;;;;;;;;5035902;28;20827;-57
2021/11/06 13:04:41;;;;;;;5.93;5.10;;;;;;;;;;5036545;28;20457;-58
2021/11/06 13:07:08;;;;;;;6.60;4.67;;;;;;;;;;5036450;28;20445;-57
2021/11/06 13:09:36;;;;;;;6.20;4.37;;;;;;;;;;5036078;28;20485;-57
2021/11/06 13:12:08;;;;;;;7.10;4.87;;;;;;;;;;5036190;28;20476;-57
2021/11/06 13:14:56;;;;;;;6.70;4.50;;;;;;;;;;5035778;28;20460;-58
2021/11/06 13:17:27;;;;;;;7.05;5.05;;;;;;;;;;5031157;28;20217;-59
2021/11/06 13:19:56;;;;;;;6.60;4.27;;;;;;;;;;5035660;28;20205;-57
2021/11/06 13:22:40;;;;;;;5.83;4.27;;;;;;;;;;5035452;28;20473;-57
2021/11/06 13:25:09;;;;;;;6.97;5.37;;;;;;;;;;5035635;28;20453;-58
2021/11/06 13:27:38;;;;;;;6.10;3.80;;;;;;;;;;5035299;28;20786;-57
2021/11/06 13:30:18;;;;;;;6.93;4.73;;;;;;;;;;5035462;28;20229;-58
2021/11/06 13:32:57;;;;;;;10.50;5.90;;;;;;;;;;5035846;28;20433;-57
2021/11/06 13:35:25;;;;;;;6.43;4.03;;;;;;;;;;5035487;28;20186;-58
2021/11/06 13:38:11;;;;;;;3.80;3.40;;;;;;;;;;5035611;28;20497;-58
2021/11/06 13:40:50;;;;;;;6.33;4.60;;;;;;;;;;5034898;28;20453;-58
2021/11/06 13:43:18;;;;;;;6.30;4.17;;;;;;;;;;5035844;28;20433;-59
2021/11/06 13:46:04;;;;;;;6.87;3.70;;;;;;;;;;5035599;28;20441;-58
2021/11/06 13:48:35;;;;;;;5.57;3.80;;;;;;;;;;5035235;28;20460;-58
2021/11/06 13:51:16;;;;;;;5.20;4.07;;;;;;;;;;5035239;28;20841;-58
2021/11/06 13:53:54;;;;;;;5.40;3.80;;;;;;;;;;5035141;28;20445;-58
2021/11/06 13:56:25;;;;;;;5.50;3.40;;;;;;;;;;5035869;28;20436;-58
2021/11/06 13:58:53;;;;;;;5.60;3.97;;;;;;;;;;5034972;28;20213;-57
2021/11/06 14:01:21;;;;;;;6.37;4.20;;;;;;;;;;5034793;28;20465;-57
2021/11/06 14:03:50;;;;;;;4.27;3.70;;;;;;;;;;5035608;28;20444;-58
2021/11/06 14:06:18;;;;;;;4.73;3.20;;;;;;;;;;5035137;28;20472;-59
2021/11/06 14:08:45;;;;;;;6.10;3.87;;;;;;;;;;5034979;28;20510;-59
2021/11/06 14:11:13;;;;;;;6.70;4.00;;;;;;;;;;5034520;28;20484;-58
2021/11/06 14:13:40;;;;;;;5.57;3.53;;;;;;;;;;5034842;28;20461;-59
2021/11/06 14:16:14;;;;;;;5.80;4.10;;;;;;;;;;5034455;28;20814;-58
2021/11/06 14:18:45;;;;;;;5.10;3.47;;;;;;;;;;5034811;28;20838;-59
2021/11/06 14:21:18;;;;;;;5.40;3.70;;;;;;;;;;5034384;28;20479;-58
2021/11/06 14:23:46;;;;;;;5.30;3.10;;;;;;;;;;5034445;28;20437;-58
2021/11/06 14:26:14;;;;;;;5.10;3.50;;;;;;;;;;5034321;28;20456;-58
2021/11/06 14:28:51;;;;;;;3.83;3.07;;;;;;;;;;5034059;28;20452;-58
2021/11/06 14:31:28;;;;;;;4.57;3.53;;;;;;;;;;5034026;28;20504;-58
2021/11/06 14:33:56;;;;;;;4.03;3.60;;;;;;;;;;5034103;28;20437;-58
2021/11/06 14:36:25;;;;;;;5.80;3.30;;;;;;;;;;5034099;28;20925;-59
2021/11/06 14:38:54;;;;;;;4.80;3.20;;;;;;;;;;5034222;28;20949;-58
2021/11/06 14:41:23;;;;;;;5.00;3.03;;;;;;;;;;5033910;28;20972;-59
2021/11/06 14:43:51;;;;;;;4.80;3.40;;;;;;;;;;5033813;28;20495;-57